sensor_id;sensor_type;location;lat;lon;timestamp;temperature;humidity
4308;DHT22;2167;53.448;9.984;2023-04-16T00:00:49;9.80;23.00
4308;DHT22;2167;53.448;9.984;2023-04-16T00:03:15;9.80;23.00
4308;DHT22;2167;53.448;9.984;2023-04-16T00:05:40;9.70;22.80
4308;DHT22;2167;53.448;9.984;2023-04-16T00:08:06;9.70;23.20
4308;DHT22;2167;53.448;9.984;2023-04-16T00:10:33;9.80;23.20
4308;DHT22;2167;53.448;9.984;2023-04-16T00:13:00;9.80;22.90
4308;DHT22;2167;53.448;9.984;2023-04-16T00:15:25;9.80;22.70
4308;DHT22;2167;53.448;9.984;2023-04-16T00:17:51;9.80;23.00
4308;DHT22;2167;53.448;9.984;2023-04-16T00:20:16;9.80;23.10
4308;DHT22;2167;53.448;9.984;2023-04-16T00:22:42;9.80;22.70
4308;DHT22;2167;53.448;9.984;2023-04-16T00:25:08;9.80;22.50
4308;DHT22;2167;53.448;9.984;2023-04-16T00:27:34;9.90;22.60
4308;DHT22;2167;53.448;9.984;2023-04-16T00:29:59;9.80;22.10
4308;DHT22;2167;53.448;9.984;2023-04-16T00:32:25;9.80;22.60
4308;DHT22;2167;53.448;9.984;2023-04-16T00:34:51;9.80;22.40
4308;DHT22;2167;53.448;9.984;2023-04-16T00:37:16;9.70;22.10
4308;DHT22;2167;53.448;9.984;2023-04-16T00:39:42;9.70;21.90
4308;DHT22;2167;53.448;9.984;2023-04-16T00:42:07;9.70;22.10
4308;DHT22;2167;53.448;9.984;2023-04-16T00:44:33;9.70;22.10
4308;DHT22;2167;53.448;9.984;2023-04-16T00:47:02;9.60;22.40
4308;DHT22;2167;53.448;9.984;2023-04-16T00:49:28;9.70;22.40
4308;DHT22;2167;53.448;9.984;2023-04-16T00:51:55;9.60;22.20
4308;DHT22;2167;53.448;9.984;2023-04-16T00:54:20;9.70;22.40
4308;DHT22;2167;53.448;9.984;2023-04-16T00:56:46;9.60;22.20
4308;DHT22;2167;53.448;9.984;2023-04-16T00:59:12;9.60;22.20
4308;DHT22;2167;53.448;9.984;2023-04-16T01:01:37;9.60;21.70
4308;DHT22;2167;53.448;9.984;2023-04-16T01:04:03;9.50;21.50
4308;DHT22;2167;53.448;9.984;2023-04-16T01:06:31;9.40;22.10
4308;DHT22;2167;53.448;9.984;2023-04-16T01:08:56;9.40;21.50
4308;DHT22;2167;53.448;9.984;2023-04-16T01:14:53;9.40;21.80
4308;DHT22;2167;53.448;9.984;2023-04-16T01:17:19;9.30;21.70
4308;DHT22;2167;53.448;9.984;2023-04-16T01:19:44;9.20;21.70
4308;DHT22;2167;53.448;9.984;2023-04-16T01:22:10;9.20;22.20
4308;DHT22;2167;53.448;9.984;2023-04-16T01:24:36;9.20;22.50
4308;DHT22;2167;53.448;9.984;2023-04-16T01:27:02;9.20;23.00
4308;DHT22;2167;53.448;9.984;2023-04-16T01:29:27;9.20;22.60
4308;DHT22;2167;53.448;9.984;2023-04-16T01:31:53;9.20;22.50
4308;DHT22;2167;53.448;9.984;2023-04-16T01:34:19;9.20;22.00
4308;DHT22;2167;53.448;9.984;2023-04-16T01:36:44;9.20;22.10
4308;DHT22;2167;53.448;9.984;2023-04-16T01:39:10;9.20;22.10
4308;DHT22;2167;53.448;9.984;2023-04-16T01:41:41;9.10;22.10
4308;DHT22;2167;53.448;9.984;2023-04-16T01:44:07;9.10;21.80
4308;DHT22;2167;53.448;9.984;2023-04-16T01:46:34;9.10;22.00
4308;DHT22;2167;53.448;9.984;2023-04-16T01:49:04;9.10;22.00
4308;DHT22;2167;53.448;9.984;2023-04-16T01:51:31;9.10;22.20
4308;DHT22;2167;53.448;9.984;2023-04-16T01:53:57;9.10;22.30
4308;DHT22;2167;53.448;9.984;2023-04-16T01:56:23;9.10;22.30
4308;DHT22;2167;53.448;9.984;2023-04-16T01:58:49;9.10;22.20
4308;DHT22;2167;53.448;9.984;2023-04-16T02:01:14;9.00;22.20
4308;DHT22;2167;53.448;9.984;2023-04-16T02:03:40;9.00;22.20
4308;DHT22;2167;53.448;9.984;2023-04-16T02:06:06;9.00;22.50
4308;DHT22;2167;53.448;9.984;2023-04-16T02:08:32;9.00;22.60
4308;DHT22;2167;53.448;9.984;2023-04-16T02:10:59;9.00;22.50
4308;DHT22;2167;53.448;9.984;2023-04-16T02:13:24;9.10;22.60
4308;DHT22;2167;53.448;9.984;2023-04-16T02:15:51;9.10;22.40
4308;DHT22;2167;53.448;9.984;2023-04-16T02:18:17;9.10;22.40
4308;DHT22;2167;53.448;9.984;2023-04-16T02:20:44;9.00;22.00
4308;DHT22;2167;53.448;9.984;2023-04-16T02:23:10;9.00;22.00
4308;DHT22;2167;53.448;9.984;2023-04-16T02:25:44;9.00;21.70
4308;DHT22;2167;53.448;9.984;2023-04-16T02:28:13;9.00;21.90
4308;DHT22;2167;53.448;9.984;2023-04-16T02:30:39;9.00;22.00
4308;DHT22;2167;53.448;9.984;2023-04-16T02:33:06;9.00;22.20
4308;DHT22;2167;53.448;9.984;2023-04-16T02:35:36;9.00;22.10
4308;DHT22;2167;53.448;9.984;2023-04-16T02:38:02;9.00;22.10
4308;DHT22;2167;53.448;9.984;2023-04-16T02:40:29;9.00;22.20
4308;DHT22;2167;53.448;9.984;2023-04-16T02:42:55;9.00;21.70
4308;DHT22;2167;53.448;9.984;2023-04-16T02:45:21;9.00;21.70
4308;DHT22;2167;53.448;9.984;2023-04-16T02:47:48;9.00;21.70
4308;DHT22;2167;53.448;9.984;2023-04-16T02:50:13;9.00;22.00
4308;DHT22;2167;53.448;9.984;2023-04-16T02:52:39;9.00;21.90
4308;DHT22;2167;53.448;9.984;2023-04-16T02:55:05;9.00;21.80
4308;DHT22;2167;53.448;9.984;2023-04-16T02:57:31;9.00;21.90
4308;DHT22;2167;53.448;9.984;2023-04-16T02:59:57;9.10;21.90
4308;DHT22;2167;53.448;9.984;2023-04-16T03:02:22;9.10;21.50
4308;DHT22;2167;53.448;9.984;2023-04-16T03:04:48;9.10;21.40
4308;DHT22;2167;53.448;9.984;2023-04-16T03:07:13;9.10;21.20
4308;DHT22;2167;53.448;9.984;2023-04-16T03:09:39;9.10;21.20
4308;DHT22;2167;53.448;9.984;2023-04-16T03:12:05;9.10;21.50
4308;DHT22;2167;53.448;9.984;2023-04-16T03:14:31;9.10;21.30
4308;DHT22;2167;53.448;9.984;2023-04-16T03:16:57;9.10;21.30
4308;DHT22;2167;53.448;9.984;2023-04-16T03:19:22;9.10;21.40
4308;DHT22;2167;53.448;9.984;2023-04-16T03:21:48;9.10;21.50
4308;DHT22;2167;53.448;9.984;2023-04-16T03:24:14;9.00;21.50
4308;DHT22;2167;53.448;9.984;2023-04-16T03:26:40;9.10;21.60
4308;DHT22;2167;53.448;9.984;2023-04-16T03:29:06;9.10;21.90
4308;DHT22;2167;53.448;9.984;2023-04-16T03:31:31;9.10;22.20
4308;DHT22;2167;53.448;9.984;2023-04-16T03:33:57;9.10;21.90
4308;DHT22;2167;53.448;9.984;2023-04-16T03:36:22;9.10;22.00
4308;DHT22;2167;53.448;9.984;2023-04-16T03:38:48;9.10;21.60
4308;DHT22;2167;53.448;9.984;2023-04-16T03:41:14;9.10;21.30
4308;DHT22;2167;53.448;9.984;2023-04-16T03:43:39;9.20;21.70
4308;DHT22;2167;53.448;9.984;2023-04-16T03:46:05;9.20;21.20
4308;DHT22;2167;53.448;9.984;2023-04-16T03:48:31;9.20;21.50
4308;DHT22;2167;53.448;9.984;2023-04-16T03:50:56;9.20;21.60
4308;DHT22;2167;53.448;9.984;2023-04-16T03:53:22;9.20;21.20
4308;DHT22;2167;53.448;9.984;2023-04-16T03:55:51;9.20;20.90
4308;DHT22;2167;53.448;9.984;2023-04-16T03:58:17;9.30;21.10
4308;DHT22;2167;53.448;9.984;2023-04-16T04:00:43;9.30;21.20
4308;DHT22;2167;53.448;9.984;2023-04-16T04:03:09;9.40;21.10
4308;DHT22;2167;53.448;9.984;2023-04-16T04:05:38;9.30;20.80
4308;DHT22;2167;53.448;9.984;2023-04-16T04:08:04;9.40;20.70
4308;DHT22;2167;53.448;9.984;2023-04-16T04:10:33;9.40;20.90
4308;DHT22;2167;53.448;9.984;2023-04-16T04:13:01;9.40;20.70
4308;DHT22;2167;53.448;9.984;2023-04-16T04:15:27;9.40;20.90
4308;DHT22;2167;53.448;9.984;2023-04-16T04:17:53;9.40;21.20
4308;DHT22;2167;53.448;9.984;2023-04-16T04:20:18;9.40;21.10
4308;DHT22;2167;53.448;9.984;2023-04-16T04:22:44;9.40;21.00
4308;DHT22;2167;53.448;9.984;2023-04-16T04:25:10;9.40;20.60
4308;DHT22;2167;53.448;9.984;2023-04-16T04:27:35;9.50;20.60
4308;DHT22;2167;53.448;9.984;2023-04-16T04:30:02;9.50;20.50
4308;DHT22;2167;53.448;9.984;2023-04-16T04:32:29;9.40;20.60
4308;DHT22;2167;53.448;9.984;2023-04-16T04:34:55;9.50;20.90
4308;DHT22;2167;53.448;9.984;2023-04-16T04:37:21;9.50;21.10
4308;DHT22;2167;53.448;9.984;2023-04-16T04:39:46;9.50;20.90
4308;DHT22;2167;53.448;9.984;2023-04-16T04:42:12;9.50;21.00
4308;DHT22;2167;53.448;9.984;2023-04-16T04:44:38;9.50;21.20
4308;DHT22;2167;53.448;9.984;2023-04-16T04:47:03;9.60;21.00
4308;DHT22;2167;53.448;9.984;2023-04-16T04:49:29;9.60;20.90
4308;DHT22;2167;53.448;9.984;2023-04-16T04:51:55;9.60;20.90
4308;DHT22;2167;53.448;9.984;2023-04-16T04:54:21;9.60;20.90
4308;DHT22;2167;53.448;9.984;2023-04-16T04:56:46;9.50;20.60
4308;DHT22;2167;53.448;9.984;2023-04-16T04:59:12;9.60;20.90
4308;DHT22;2167;53.448;9.984;2023-04-16T05:01:37;9.60;20.80
4308;DHT22;2167;53.448;9.984;2023-04-16T05:04:03;9.60;20.80
4308;DHT22;2167;53.448;9.984;2023-04-16T05:06:29;9.60;21.10
4308;DHT22;2167;53.448;9.984;2023-04-16T05:08:54;9.60;20.80
4308;DHT22;2167;53.448;9.984;2023-04-16T05:11:20;9.60;20.60
4308;DHT22;2167;53.448;9.984;2023-04-16T05:13:45;9.60;20.60
4308;DHT22;2167;53.448;9.984;2023-04-16T05:16:11;9.60;21.00
4308;DHT22;2167;53.448;9.984;2023-04-16T05:18:37;9.60;21.20
4308;DHT22;2167;53.448;9.984;2023-04-16T05:21:02;9.60;21.00
4308;DHT22;2167;53.448;9.984;2023-04-16T05:23:28;9.60;21.40
4308;DHT22;2167;53.448;9.984;2023-04-16T05:25:53;9.60;21.20
4308;DHT22;2167;53.448;9.984;2023-04-16T05:28:19;9.70;21.10
4308;DHT22;2167;53.448;9.984;2023-04-16T05:30:45;9.70;21.10
4308;DHT22;2167;53.448;9.984;2023-04-16T05:33:13;9.70;21.10
4308;DHT22;2167;53.448;9.984;2023-04-16T05:35:39;9.70;20.80
4308;DHT22;2167;53.448;9.984;2023-04-16T05:38:05;9.70;20.80
4308;DHT22;2167;53.448;9.984;2023-04-16T05:40:31;9.70;21.10
4308;DHT22;2167;53.448;9.984;2023-04-16T05:42:59;9.60;21.10
4308;DHT22;2167;53.448;9.984;2023-04-16T05:45:25;9.70;20.90
4308;DHT22;2167;53.448;9.984;2023-04-16T05:47:50;9.80;20.70
4308;DHT22;2167;53.448;9.984;2023-04-16T05:50:16;9.80;21.00
4308;DHT22;2167;53.448;9.984;2023-04-16T05:52:42;9.70;20.90
4308;DHT22;2167;53.448;9.984;2023-04-16T05:55:07;9.80;20.80
4308;DHT22;2167;53.448;9.984;2023-04-16T05:57:34;9.70;20.90
4308;DHT22;2167;53.448;9.984;2023-04-16T05:59:59;9.80;21.30
4308;DHT22;2167;53.448;9.984;2023-04-16T06:02:25;9.80;21.30
4308;DHT22;2167;53.448;9.984;2023-04-16T06:04:50;9.80;21.10
4308;DHT22;2167;53.448;9.984;2023-04-16T06:07:16;9.80;21.10
4308;DHT22;2167;53.448;9.984;2023-04-16T06:09:41;9.90;21.10
4308;DHT22;2167;53.448;9.984;2023-04-16T06:12:07;9.80;21.30
4308;DHT22;2167;53.448;9.984;2023-04-16T06:14:32;9.90;21.10
4308;DHT22;2167;53.448;9.984;2023-04-16T06:16:58;9.90;20.90
4308;DHT22;2167;53.448;9.984;2023-04-16T06:19:24;9.90;20.60
4308;DHT22;2167;53.448;9.984;2023-04-16T06:21:49;9.90;20.60
4308;DHT22;2167;53.448;9.984;2023-04-16T06:24:15;10.00;21.00
4308;DHT22;2167;53.448;9.984;2023-04-16T06:26:43;10.00;20.60
4308;DHT22;2167;53.448;9.984;2023-04-16T06:29:08;9.90;20.40
4308;DHT22;2167;53.448;9.984;2023-04-16T06:31:34;10.00;20.80
4308;DHT22;2167;53.448;9.984;2023-04-16T06:33:59;9.90;21.00
4308;DHT22;2167;53.448;9.984;2023-04-16T06:36:25;9.90;21.30
4308;DHT22;2167;53.448;9.984;2023-04-16T06:38:52;10.00;21.70
4308;DHT22;2167;53.448;9.984;2023-04-16T06:41:17;10.00;21.90
4308;DHT22;2167;53.448;9.984;2023-04-16T06:43:43;10.10;21.70
4308;DHT22;2167;53.448;9.984;2023-04-16T06:46:09;10.10;21.50
4308;DHT22;2167;53.448;9.984;2023-04-16T06:48:37;10.10;21.50
4308;DHT22;2167;53.448;9.984;2023-04-16T06:51:03;10.10;21.20
4308;DHT22;2167;53.448;9.984;2023-04-16T06:53:28;10.20;20.70
4308;DHT22;2167;53.448;9.984;2023-04-16T06:55:54;10.20;20.30
4308;DHT22;2167;53.448;9.984;2023-04-16T06:58:20;10.30;20.10
4308;DHT22;2167;53.448;9.984;2023-04-16T07:00:49;10.30;19.40
4308;DHT22;2167;53.448;9.984;2023-04-16T07:03:15;10.20;19.50
4308;DHT22;2167;53.448;9.984;2023-04-16T07:05:40;10.30;19.80
4308;DHT22;2167;53.448;9.984;2023-04-16T07:08:06;10.30;20.00
4308;DHT22;2167;53.448;9.984;2023-04-16T07:10:32;10.40;19.30
4308;DHT22;2167;53.448;9.984;2023-04-16T07:13:00;10.40;19.00
4308;DHT22;2167;53.448;9.984;2023-04-16T07:15:26;10.40;19.00
4308;DHT22;2167;53.448;9.984;2023-04-16T07:17:52;10.40;19.10
4308;DHT22;2167;53.448;9.984;2023-04-16T07:20:17;10.50;19.10
4308;DHT22;2167;53.448;9.984;2023-04-16T07:22:43;10.50;18.80
4308;DHT22;2167;53.448;9.984;2023-04-16T07:25:09;10.60;17.70
4308;DHT22;2167;53.448;9.984;2023-04-16T07:27:35;10.50;17.70
4308;DHT22;2167;53.448;9.984;2023-04-16T07:30:00;10.50;18.20
4308;DHT22;2167;53.448;9.984;2023-04-16T07:32:26;10.50;18.00
4308;DHT22;2167;53.448;9.984;2023-04-16T07:34:51;10.50;18.20
4308;DHT22;2167;53.448;9.984;2023-04-16T07:37:17;10.40;18.40
4308;DHT22;2167;53.448;9.984;2023-04-16T07:39:42;10.40;18.70
4308;DHT22;2167;53.448;9.984;2023-04-16T07:42:11;10.40;18.90
4308;DHT22;2167;53.448;9.984;2023-04-16T07:44:37;10.60;18.80
4308;DHT22;2167;53.448;9.984;2023-04-16T07:47:02;10.60;18.70
4308;DHT22;2167;53.448;9.984;2023-04-16T07:49:28;10.70;18.50
4308;DHT22;2167;53.448;9.984;2023-04-16T07:51:54;10.70;17.10
4308;DHT22;2167;53.448;9.984;2023-04-16T07:54:20;10.70;17.30
4308;DHT22;2167;53.448;9.984;2023-04-16T07:56:45;10.80;17.30
4308;DHT22;2167;53.448;9.984;2023-04-16T07:59:11;10.90;16.40
4308;DHT22;2167;53.448;9.984;2023-04-16T08:01:37;10.90;16.40
4308;DHT22;2167;53.448;9.984;2023-04-16T08:04:02;11.00;16.30
4308;DHT22;2167;53.448;9.984;2023-04-16T08:06:28;11.00;15.00
4308;DHT22;2167;53.448;9.984;2023-04-16T08:08:53;11.20;15.00
4308;DHT22;2167;53.448;9.984;2023-04-16T08:11:19;11.10;14.00
4308;DHT22;2167;53.448;9.984;2023-04-16T08:13:45;11.10;13.10
4308;DHT22;2167;53.448;9.984;2023-04-16T08:16:13;11.00;13.10
4308;DHT22;2167;53.448;9.984;2023-04-16T08:18:39;11.00;13.40
4308;DHT22;2167;53.448;9.984;2023-04-16T08:21:05;11.00;13.80
4308;DHT22;2167;53.448;9.984;2023-04-16T08:23:30;10.90;14.10
4308;DHT22;2167;53.448;9.984;2023-04-16T08:25:59;11.00;15.00
4308;DHT22;2167;53.448;9.984;2023-04-16T08:28:25;11.10;15.50
4308;DHT22;2167;53.448;9.984;2023-04-16T08:30:50;11.20;13.50
4308;DHT22;2167;53.448;9.984;2023-04-16T08:33:16;11.20;13.50
4308;DHT22;2167;53.448;9.984;2023-04-16T08:35:41;11.20;12.10
4308;DHT22;2167;53.448;9.984;2023-04-16T08:38:07;11.30;12.40
4308;DHT22;2167;53.448;9.984;2023-04-16T08:40:45;11.30;12.50
4308;DHT22;2167;53.448;9.984;2023-04-16T08:43:21;11.30;11.70
4308;DHT22;2167;53.448;9.984;2023-04-16T08:45:48;11.30;11.80
4308;DHT22;2167;53.448;9.984;2023-04-16T08:48:14;11.40;11.90
4308;DHT22;2167;53.448;9.984;2023-04-16T08:50:40;11.40;11.50
4308;DHT22;2167;53.448;9.984;2023-04-16T08:53:06;11.50;11.70
4308;DHT22;2167;53.448;9.984;2023-04-16T08:55:38;11.60;10.80
4308;DHT22;2167;53.448;9.984;2023-04-16T08:58:18;11.60;10.50
4308;DHT22;2167;53.448;9.984;2023-04-16T09:00:44;11.60;9.80
4308;DHT22;2167;53.448;9.984;2023-04-16T09:03:11;11.60;9.30
4308;DHT22;2167;53.448;9.984;2023-04-16T09:05:37;11.60;9.30
4308;DHT22;2167;53.448;9.984;2023-04-16T09:08:11;11.50;9.60
4308;DHT22;2167;53.448;9.984;2023-04-16T09:10:36;11.50;9.70
4308;DHT22;2167;53.448;9.984;2023-04-16T09:13:02;11.50;10.40
4308;DHT22;2167;53.448;9.984;2023-04-16T09:15:28;11.60;9.70
4308;DHT22;2167;53.448;9.984;2023-04-16T09:17:54;11.60;9.90
4308;DHT22;2167;53.448;9.984;2023-04-16T09:20:21;11.70;10.10
4308;DHT22;2167;53.448;9.984;2023-04-16T09:22:47;11.80;9.90
4308;DHT22;2167;53.448;9.984;2023-04-16T09:25:15;11.90;9.80
4308;DHT22;2167;53.448;9.984;2023-04-16T09:27:41;12.10;9.20
4308;DHT22;2167;53.448;9.984;2023-04-16T09:30:24;12.10;7.60
4308;DHT22;2167;53.448;9.984;2023-04-16T09:32:51;12.10;6.50
4308;DHT22;2167;53.448;9.984;2023-04-16T09:35:20;12.10;6.80
4308;DHT22;2167;53.448;9.984;2023-04-16T09:38:04;12.10;6.40
4308;DHT22;2167;53.448;9.984;2023-04-16T09:40:30;12.00;7.10
4308;DHT22;2167;53.448;9.984;2023-04-16T09:42:56;12.10;7.40
4308;DHT22;2167;53.448;9.984;2023-04-16T09:45:22;12.10;7.40
4308;DHT22;2167;53.448;9.984;2023-04-16T09:47:51;12.20;6.60
4308;DHT22;2167;53.448;9.984;2023-04-16T09:50:18;12.20;6.30
4308;DHT22;2167;53.448;9.984;2023-04-16T09:52:48;12.20;6.30
4308;DHT22;2167;53.448;9.984;2023-04-16T09:55:15;12.20;6.60
4308;DHT22;2167;53.448;9.984;2023-04-16T09:57:41;12.20;6.80
4308;DHT22;2167;53.448;9.984;2023-04-16T10:00:07;12.20;7.20
4308;DHT22;2167;53.448;9.984;2023-04-16T10:02:39;12.20;6.60
4308;DHT22;2167;53.448;9.984;2023-04-16T10:05:06;12.20;7.20
4308;DHT22;2167;53.448;9.984;2023-04-16T10:07:35;12.30;7.30
4308;DHT22;2167;53.448;9.984;2023-04-16T10:10:02;12.40;6.30
4308;DHT22;2167;53.448;9.984;2023-04-16T10:12:29;12.40;6.40
4308;DHT22;2167;53.448;9.984;2023-04-16T10:14:55;12.50;6.80
4308;DHT22;2167;53.448;9.984;2023-04-16T10:17:20;12.50;6.10
4308;DHT22;2167;53.448;9.984;2023-04-16T10:19:47;12.50;5.60
4308;DHT22;2167;53.448;9.984;2023-04-16T10:22:13;12.40;5.90
4308;DHT22;2167;53.448;9.984;2023-04-16T10:24:40;12.50;6.50
4308;DHT22;2167;53.448;9.984;2023-04-16T10:27:05;12.50;6.00
4308;DHT22;2167;53.448;9.984;2023-04-16T10:29:32;12.50;5.30
4308;DHT22;2167;53.448;9.984;2023-04-16T10:31:59;12.60;5.30
4308;DHT22;2167;53.448;9.984;2023-04-16T10:34:26;12.50;5.10
4308;DHT22;2167;53.448;9.984;2023-04-16T10:36:53;12.50;5.00
4308;DHT22;2167;53.448;9.984;2023-04-16T10:39:21;12.60;5.60
4308;DHT22;2167;53.448;9.984;2023-04-16T10:41:47;12.60;5.80
4308;DHT22;2167;53.448;9.984;2023-04-16T10:44:18;12.60;6.20
4308;DHT22;2167;53.448;9.984;2023-04-16T10:46:46;12.60;6.60
4308;DHT22;2167;53.448;9.984;2023-04-16T10:49:24;12.60;6.20
4308;DHT22;2167;53.448;9.984;2023-04-16T10:51:58;12.60;5.80
4308;DHT22;2167;53.448;9.984;2023-04-16T10:54:31;12.60;4.90
4308;DHT22;2167;53.448;9.984;2023-04-16T10:57:02;12.60;5.50
4308;DHT22;2167;53.448;9.984;2023-04-16T10:59:33;12.60;5.70
4308;DHT22;2167;53.448;9.984;2023-04-16T11:02:08;12.70;5.60
4308;DHT22;2167;53.448;9.984;2023-04-16T11:04:37;12.70;4.90
4308;DHT22;2167;53.448;9.984;2023-04-16T11:09:45;12.60;4.50
4308;DHT22;2167;53.448;9.984;2023-04-16T11:12:13;12.60;4.50
4308;DHT22;2167;53.448;9.984;2023-04-16T11:14:48;12.60;5.40
4308;DHT22;2167;53.448;9.984;2023-04-16T11:17:14;12.70;4.70
4308;DHT22;2167;53.448;9.984;2023-04-16T11:19:41;12.60;4.70
4308;DHT22;2167;53.448;9.984;2023-04-16T11:22:07;12.70;5.40
4308;DHT22;2167;53.448;9.984;2023-04-16T11:24:33;12.70;4.30
4308;DHT22;2167;53.448;9.984;2023-04-16T11:27:00;12.70;4.40
4308;DHT22;2167;53.448;9.984;2023-04-16T11:29:26;12.80;5.40
4308;DHT22;2167;53.448;9.984;2023-04-16T11:31:52;12.80;5.60
4308;DHT22;2167;53.448;9.984;2023-04-16T11:34:19;12.90;5.00
4308;DHT22;2167;53.448;9.984;2023-04-16T11:36:45;12.90;4.40
4308;DHT22;2167;53.448;9.984;2023-04-16T11:39:11;12.90;4.40
4308;DHT22;2167;53.448;9.984;2023-04-16T11:41:47;13.00;4.50
4308;DHT22;2167;53.448;9.984;2023-04-16T11:44:19;13.00;3.50
4308;DHT22;2167;53.448;9.984;2023-04-16T11:46:45;13.00;3.60
4308;DHT22;2167;53.448;9.984;2023-04-16T11:49:11;13.00;4.30
4308;DHT22;2167;53.448;9.984;2023-04-16T11:51:44;13.00;3.30
4308;DHT22;2167;53.448;9.984;2023-04-16T11:54:18;13.00;3.10
4308;DHT22;2167;53.448;9.984;2023-04-16T11:56:45;12.80;3.40
4308;DHT22;2167;53.448;9.984;2023-04-16T11:59:17;12.90;3.90
4308;DHT22;2167;53.448;9.984;2023-04-16T12:01:48;12.90;3.80
4308;DHT22;2167;53.448;9.984;2023-04-16T12:04:19;12.80;3.30
4308;DHT22;2167;53.448;9.984;2023-04-16T12:07:10;12.80;4.40
4308;DHT22;2167;53.448;9.984;2023-04-16T12:09:37;12.70;4.70
4308;DHT22;2167;53.448;9.984;2023-04-16T12:12:28;12.70;4.50
4308;DHT22;2167;53.448;9.984;2023-04-16T12:14:55;12.60;5.30
4308;DHT22;2167;53.448;9.984;2023-04-16T12:17:22;12.60;6.00
4308;DHT22;2167;53.448;9.984;2023-04-16T12:20:20;12.60;4.70
4308;DHT22;2167;53.448;9.984;2023-04-16T12:22:47;12.60;5.80
4308;DHT22;2167;53.448;9.984;2023-04-16T12:25:15;12.60;5.10
4308;DHT22;2167;53.448;9.984;2023-04-16T12:27:54;12.60;6.00
4308;DHT22;2167;53.448;9.984;2023-04-16T12:30:24;12.60;5.60
4308;DHT22;2167;53.448;9.984;2023-04-16T12:33:12;12.60;6.20
4308;DHT22;2167;53.448;9.984;2023-04-16T12:35:38;12.60;4.90
4308;DHT22;2167;53.448;9.984;2023-04-16T12:38:06;12.60;4.70
4308;DHT22;2167;53.448;9.984;2023-04-16T12:40:32;12.60;4.60
4308;DHT22;2167;53.448;9.984;2023-04-16T12:42:58;12.60;5.40
4308;DHT22;2167;53.448;9.984;2023-04-16T12:45:24;12.60;3.70
4308;DHT22;2167;53.448;9.984;2023-04-16T12:47:50;12.60;4.10
4308;DHT22;2167;53.448;9.984;2023-04-16T12:50:15;12.60;3.70
4308;DHT22;2167;53.448;9.984;2023-04-16T12:52:41;12.60;3.20
4308;DHT22;2167;53.448;9.984;2023-04-16T12:55:10;12.50;3.60
4308;DHT22;2167;53.448;9.984;2023-04-16T12:57:36;12.60;4.10
4308;DHT22;2167;53.448;9.984;2023-04-16T13:00:04;12.50;4.60
4308;DHT22;2167;53.448;9.984;2023-04-16T13:02:35;12.40;4.80
4308;DHT22;2167;53.448;9.984;2023-04-16T13:05:01;12.40;5.10
4308;DHT22;2167;53.448;9.984;2023-04-16T13:07:26;12.50;5.50
4308;DHT22;2167;53.448;9.984;2023-04-16T13:09:52;12.40;4.60
4308;DHT22;2167;53.448;9.984;2023-04-16T13:12:18;12.40;4.50
4308;DHT22;2167;53.448;9.984;2023-04-16T13:14:43;12.40;5.20
4308;DHT22;2167;53.448;9.984;2023-04-16T13:17:09;12.40;6.10
4308;DHT22;2167;53.448;9.984;2023-04-16T13:19:46;12.40;6.50
4308;DHT22;2167;53.448;9.984;2023-04-16T13:22:36;12.40;6.80
4308;DHT22;2167;53.448;9.984;2023-04-16T13:25:06;12.40;6.00
4308;DHT22;2167;53.448;9.984;2023-04-16T13:27:32;12.50;5.60
4308;DHT22;2167;53.448;9.984;2023-04-16T13:29:58;12.40;5.30
4308;DHT22;2167;53.448;9.984;2023-04-16T13:32:24;12.40;4.90
4308;DHT22;2167;53.448;9.984;2023-04-16T13:34:55;12.40;5.00
4308;DHT22;2167;53.448;9.984;2023-04-16T13:37:30;12.30;5.30
4308;DHT22;2167;53.448;9.984;2023-04-16T13:39:56;12.40;5.90
4308;DHT22;2167;53.448;9.984;2023-04-16T13:42:22;12.40;5.40
4308;DHT22;2167;53.448;9.984;2023-04-16T13:44:47;12.40;5.60
4308;DHT22;2167;53.448;9.984;2023-04-16T13:47:17;12.40;6.40
4308;DHT22;2167;53.448;9.984;2023-04-16T13:49:42;12.50;6.30
4308;DHT22;2167;53.448;9.984;2023-04-16T13:52:08;12.50;4.80
4308;DHT22;2167;53.448;9.984;2023-04-16T13:54:33;12.50;5.90
4308;DHT22;2167;53.448;9.984;2023-04-16T13:56:59;12.50;5.10
4308;DHT22;2167;53.448;9.984;2023-04-16T13:59:36;12.60;4.50
4308;DHT22;2167;53.448;9.984;2023-04-16T14:02:02;12.60;5.10
4308;DHT22;2167;53.448;9.984;2023-04-16T14:04:31;12.60;5.10
4308;DHT22;2167;53.448;9.984;2023-04-16T14:06:59;12.70;4.70
4308;DHT22;2167;53.448;9.984;2023-04-16T14:09:28;12.70;3.40
4308;DHT22;2167;53.448;9.984;2023-04-16T14:11:54;12.70;3.90
4308;DHT22;2167;53.448;9.984;2023-04-16T14:14:20;12.70;4.20
4308;DHT22;2167;53.448;9.984;2023-04-16T14:16:46;12.70;3.30
4308;DHT22;2167;53.448;9.984;2023-04-16T14:19:11;12.70;3.20
4308;DHT22;2167;53.448;9.984;2023-04-16T14:21:39;12.70;3.60
4308;DHT22;2167;53.448;9.984;2023-04-16T14:24:05;12.70;3.50
4308;DHT22;2167;53.448;9.984;2023-04-16T14:26:42;12.80;3.90
4308;DHT22;2167;53.448;9.984;2023-04-16T14:29:10;12.90;3.90
4308;DHT22;2167;53.448;9.984;2023-04-16T14:35:02;13.00;1.60
4308;DHT22;2167;53.448;9.984;2023-04-16T14:37:29;13.00;1.00
4308;DHT22;2167;53.448;9.984;2023-04-16T14:39:55;13.00;1.00
4308;DHT22;2167;53.448;9.984;2023-04-16T14:42:21;12.90;1.00
4308;DHT22;2167;53.448;9.984;2023-04-16T14:44:52;12.90;1.80
4308;DHT22;2167;53.448;9.984;2023-04-16T14:47:18;12.90;2.30
4308;DHT22;2167;53.448;9.984;2023-04-16T14:49:43;13.00;2.90
4308;DHT22;2167;53.448;9.984;2023-04-16T14:52:09;13.00;1.90
4308;DHT22;2167;53.448;9.984;2023-04-16T14:54:35;13.00;1.70
4308;DHT22;2167;53.448;9.984;2023-04-16T14:57:01;13.00;1.40
4308;DHT22;2167;53.448;9.984;2023-04-16T14:59:27;12.90;1.20
4308;DHT22;2167;53.448;9.984;2023-04-16T15:01:57;12.90;1.70
4308;DHT22;2167;53.448;9.984;2023-04-16T15:04:24;12.90;1.80
4308;DHT22;2167;53.448;9.984;2023-04-16T15:06:53;12.90;1.20
4308;DHT22;2167;53.448;9.984;2023-04-16T15:09:23;12.80;1.40
4308;DHT22;2167;53.448;9.984;2023-04-16T15:11:49;12.80;1.90
4308;DHT22;2167;53.448;9.984;2023-04-16T15:14:15;12.80;2.40
4308;DHT22;2167;53.448;9.984;2023-04-16T15:16:41;12.80;2.50
4308;DHT22;2167;53.448;9.984;2023-04-16T15:19:09;12.80;2.90
4308;DHT22;2167;53.448;9.984;2023-04-16T15:21:35;12.90;3.10
4308;DHT22;2167;53.448;9.984;2023-04-16T15:24:01;12.90;2.90
4308;DHT22;2167;53.448;9.984;2023-04-16T15:26:30;12.90;2.20
4308;DHT22;2167;53.448;9.984;2023-04-16T15:28:56;12.80;2.60
4308;DHT22;2167;53.448;9.984;2023-04-16T15:31:24;12.80;2.90
4308;DHT22;2167;53.448;9.984;2023-04-16T15:33:50;12.80;3.10
4308;DHT22;2167;53.448;9.984;2023-04-16T15:36:16;12.80;3.00
4308;DHT22;2167;53.448;9.984;2023-04-16T15:38:42;12.80;3.40
4308;DHT22;2167;53.448;9.984;2023-04-16T15:41:08;12.80;2.60
4308;DHT22;2167;53.448;9.984;2023-04-16T15:43:35;12.70;2.70
4308;DHT22;2167;53.448;9.984;2023-04-16T15:46:01;12.70;3.00
4308;DHT22;2167;53.448;9.984;2023-04-16T15:48:28;12.70;3.40
4308;DHT22;2167;53.448;9.984;2023-04-16T15:50:54;12.60;2.50
4308;DHT22;2167;53.448;9.984;2023-04-16T15:53:20;12.60;2.90
4308;DHT22;2167;53.448;9.984;2023-04-16T15:55:45;12.60;3.10
4308;DHT22;2167;53.448;9.984;2023-04-16T15:58:14;12.60;3.30
4308;DHT22;2167;53.448;9.984;2023-04-16T16:00:40;12.60;3.60
4308;DHT22;2167;53.448;9.984;2023-04-16T16:03:06;12.60;3.70
4308;DHT22;2167;53.448;9.984;2023-04-16T16:05:31;12.60;4.00
4308;DHT22;2167;53.448;9.984;2023-04-16T16:08:00;12.60;4.30
4308;DHT22;2167;53.448;9.984;2023-04-16T16:10:26;12.70;4.20
4308;DHT22;2167;53.448;9.984;2023-04-16T16:12:53;12.70;4.10
4308;DHT22;2167;53.448;9.984;2023-04-16T16:15:19;12.70;3.30
4308;DHT22;2167;53.448;9.984;2023-04-16T16:17:45;12.70;2.80
4308;DHT22;2167;53.448;9.984;2023-04-16T16:20:11;12.70;2.60
4308;DHT22;2167;53.448;9.984;2023-04-16T16:22:40;12.70;2.30